Time;durP1;ratioP1;P1;durP2;ratioP2;P2;SDS_P1;SDS_P2;PMS_P1;PMS_P2;Temp;Humidity;BMP_temperature;BMP_pressure;BME280_temperature;BME280_humidity;BME280_pressure;Samples;Min_cycle;Max_cycle;Signal;HPM_P1;HPM_P2
2021/06/26 00:00:59;;;;;;;0.60;0.60;;;;;;;;;;5083057;28;20048;-53
2021/06/26 00:03:27;;;;;;;0.60;0.60;;;;;;;;;;5072172;28;20044;-54
2021/06/26 00:05:55;;;;;;;0.90;0.60;;;;;;;;;;5080113;28;20143;-54
2021/06/26 00:08:22;;;;;;;0.68;0.60;;;;;;;;;;5085755;28;20041;-54
2021/06/26 00:10:49;;;;;;;1.42;0.60;;;;;;;;;;5079152;28;20504;-54
2021/06/26 00:13:17;;;;;;;0.50;0.50;;;;;;;;;;5089608;28;20036;-53
2021/06/26 00:15:44;;;;;;;0.60;0.60;;;;;;;;;;5082364;28;20052;-53
2021/06/26 00:18:10;;;;;;;0.50;0.50;;;;;;;;;;5086954;28;20044;-52
2021/06/26 00:20:37;;;;;;;0.57;0.57;;;;;;;;;;5081260;28;20055;-54
2021/06/26 00:23:04;;;;;;;1.27;0.70;;;;;;;;;;5086636;28;20403;-54
2021/06/26 00:25:31;;;;;;;0.60;0.60;;;;;;;;;;5087832;28;20117;-54
2021/06/26 00:27:58;;;;;;;0.60;0.60;;;;;;;;;;5091857;28;20063;-53
2021/06/26 00:30:24;;;;;;;0.60;0.60;;;;;;;;;;5085757;28;20098;-52
2021/06/26 00:32:51;;;;;;;0.60;0.60;;;;;;;;;;5091246;28;20068;-52
2021/06/26 00:35:18;;;;;;;0.60;0.60;;;;;;;;;;5090293;28;20575;-54
2021/06/26 00:37:45;;;;;;;0.85;0.60;;;;;;;;;;5081381;28;20089;-53
2021/06/26 00:40:12;;;;;;;0.70;0.70;;;;;;;;;;5089211;28;20540;-54
2021/06/26 00:42:40;;;;;;;1.05;0.60;;;;;;;;;;5089068;28;20044;-52
2021/06/26 00:45:07;;;;;;;0.70;0.70;;;;;;;;;;5088734;28;20040;-53
2021/06/26 00:47:34;;;;;;;0.70;0.70;;;;;;;;;;5088739;28;20036;-53
2021/06/26 00:50:02;;;;;;;0.60;0.60;;;;;;;;;;5086132;28;20036;-53
2021/06/26 00:52:29;;;;;;;0.80;0.60;;;;;;;;;;5078275;28;20125;-54
2021/06/26 00:54:56;;;;;;;0.60;0.60;;;;;;;;;;5088460;28;20515;-53
2021/06/26 00:57:23;;;;;;;0.60;0.60;;;;;;;;;;5083208;28;20032;-53
2021/06/26 00:59:50;;;;;;;0.55;0.55;;;;;;;;;;5082634;28;20044;-51
2021/06/26 01:02:17;;;;;;;0.60;0.60;;;;;;;;;;5087465;28;20513;-54
2021/06/26 01:04:43;;;;;;;0.60;0.60;;;;;;;;;;5091648;28;20373;-54
2021/06/26 01:07:10;;;;;;;1.55;0.70;;;;;;;;;;5087883;28;20101;-53
2021/06/26 01:09:37;;;;;;;0.60;0.60;;;;;;;;;;5087591;28;20029;-54
2021/06/26 01:12:04;;;;;;;2.72;0.52;;;;;;;;;;5083619;28;20036;-54
2021/06/26 01:14:30;;;;;;;1.42;0.70;;;;;;;;;;5083566;28;20550;-54
2021/06/26 01:17:03;;;;;;;0.88;0.60;;;;;;;;;;5090597;28;20068;-53
2021/06/26 01:19:29;;;;;;;2.17;0.70;;;;;;;;;;5087756;28;20032;-54
2021/06/26 01:21:58;;;;;;;0.77;0.77;;;;;;;;;;5086202;28;20123;-54
2021/06/26 01:24:26;;;;;;;3.15;0.68;;;;;;;;;;5090818;28;20036;-53
2021/06/26 01:26:57;;;;;;;0.70;0.70;;;;;;;;;;5083924;28;20047;-53
2021/06/26 01:29:25;;;;;;;0.60;0.60;;;;;;;;;;5084469;28;20032;-53
2021/06/26 01:31:52;;;;;;;0.60;0.60;;;;;;;;;;5088873;28;20136;-53
2021/06/26 01:34:19;;;;;;;0.88;0.70;;;;;;;;;;5084208;28;20082;-54
2021/06/26 01:36:46;;;;;;;1.70;0.70;;;;;;;;;;5084401;28;20105;-54
2021/06/26 01:39:13;;;;;;;0.70;0.70;;;;;;;;;;5080059;28;20051;-52
2021/06/26 01:41:40;;;;;;;1.55;0.70;;;;;;;;;;5087296;28;20526;-52
2021/06/26 01:44:06;;;;;;;0.63;0.60;;;;;;;;;;5088994;28;20067;-54
2021/06/26 01:46:33;;;;;;;1.33;0.60;;;;;;;;;;5087052;28;20120;-53
2021/06/26 01:49:09;;;;;;;1.02;0.73;;;;;;;;;;5090292;28;20036;-54
2021/06/26 01:51:36;;;;;;;0.90;0.70;;;;;;;;;;5087315;28;20090;-53
2021/06/26 01:54:04;;;;;;;0.70;0.70;;;;;;;;;;5087568;28;20036;-54
2021/06/26 01:56:31;;;;;;;1.45;0.60;;;;;;;;;;5090467;28;20111;-54
2021/06/26 01:58:58;;;;;;;1.60;0.60;;;;;;;;;;5083933;28;20122;-53
2021/06/26 02:01:25;;;;;;;0.60;0.60;;;;;;;;;;5089258;28;20089;-53
2021/06/26 02:03:52;;;;;;;0.60;0.60;;;;;;;;;;5086703;28;20438;-53
2021/06/26 02:06:19;;;;;;;0.70;0.70;;;;;;;;;;5086361;28;20111;-54
2021/06/26 02:08:45;;;;;;;2.15;0.70;;;;;;;;;;5089102;28;20127;-54
2021/06/26 02:11:12;;;;;;;0.65;0.65;;;;;;;;;;5083612;28;20551;-54
2021/06/26 02:13:39;;;;;;;0.70;0.70;;;;;;;;;;5081187;28;20075;-54
2021/06/26 02:16:06;;;;;;;1.58;0.70;;;;;;;;;;5085429;28;20051;-54
2021/06/26 02:18:32;;;;;;;0.70;0.70;;;;;;;;;;5084888;28;20048;-54
2021/06/26 02:20:59;;;;;;;0.77;0.70;;;;;;;;;;5078392;28;20072;-54
2021/06/26 02:23:27;;;;;;;4.22;0.75;;;;;;;;;;5082833;28;20085;-53
2021/06/26 02:25:54;;;;;;;0.70;0.70;;;;;;;;;;5087618;28;20047;-54
2021/06/26 02:28:21;;;;;;;0.70;0.70;;;;;;;;;;5088899;28;20086;-54
2021/06/26 02:30:47;;;;;;;0.70;0.70;;;;;;;;;;5085329;28;20044;-54
2021/06/26 02:33:14;;;;;;;0.98;0.70;;;;;;;;;;5087584;28;20036;-54
2021/06/26 02:35:41;;;;;;;0.70;0.70;;;;;;;;;;5083596;28;20377;-54
2021/06/26 02:38:07;;;;;;;0.70;0.70;;;;;;;;;;5082386;28;20559;-54
2021/06/26 02:40:34;;;;;;;0.70;0.70;;;;;;;;;;5086060;28;20060;-54
2021/06/26 02:43:02;;;;;;;0.70;0.70;;;;;;;;;;5083599;28;20114;-52
2021/06/26 02:45:29;;;;;;;1.13;0.70;;;;;;;;;;5085158;28;20033;-53
2021/06/26 02:47:55;;;;;;;0.95;0.95;;;;;;;;;;5085053;28;20047;-53
2021/06/26 02:50:22;;;;;;;0.73;0.73;;;;;;;;;;5087239;28;20295;-54
2021/06/26 02:52:49;;;;;;;0.77;0.77;;;;;;;;;;5071083;28;20040;-54
2021/06/26 02:55:15;;;;;;;0.70;0.70;;;;;;;;;;5080661;28;20090;-54
2021/06/26 02:57:42;;;;;;;1.38;0.77;;;;;;;;;;5088473;28;20040;-54
2021/06/26 03:00:09;;;;;;;0.80;0.80;;;;;;;;;;5085540;28;20071;-53
2021/06/26 03:02:36;;;;;;;0.80;0.80;;;;;;;;;;5083869;28;20039;-54
2021/06/26 03:05:03;;;;;;;0.90;0.70;;;;;;;;;;5081889;28;20147;-54
2021/06/26 03:07:30;;;;;;;0.80;0.80;;;;;;;;;;5080328;28;20476;-54
2021/06/26 03:09:56;;;;;;;0.75;0.75;;;;;;;;;;5086533;28;20476;-54
2021/06/26 03:12:23;;;;;;;0.80;0.80;;;;;;;;;;5084777;28;20043;-54
2021/06/26 03:14:50;;;;;;;1.00;0.70;;;;;;;;;;5081775;28;20047;-54
2021/06/26 03:17:16;;;;;;;0.80;0.80;;;;;;;;;;5089734;28;20086;-54
2021/06/26 03:19:43;;;;;;;0.90;0.90;;;;;;;;;;5079876;28;20098;-54
2021/06/26 03:22:10;;;;;;;1.70;0.80;;;;;;;;;;5081774;28;20032;-53
2021/06/26 03:24:37;;;;;;;1.38;1.35;;;;;;;;;;5075805;28;20048;-54
2021/06/26 03:27:04;;;;;;;1.88;0.80;;;;;;;;;;5078107;28;20058;-54
2021/06/26 03:29:31;;;;;;;0.90;0.90;;;;;;;;;;5078255;28;20472;-53
2021/06/26 03:31:57;;;;;;;0.80;0.80;;;;;;;;;;5083344;28;20040;-54
2021/06/26 03:34:24;;;;;;;0.80;0.80;;;;;;;;;;5088660;28;20373;-54
2021/06/26 03:36:51;;;;;;;0.75;0.70;;;;;;;;;;5086074;28;20479;-54
2021/06/26 03:39:18;;;;;;;1.13;1.00;;;;;;;;;;5084924;28;20063;-53
2021/06/26 03:41:44;;;;;;;0.80;0.80;;;;;;;;;;5086339;28;20040;-54
2021/06/26 03:44:11;;;;;;;1.75;0.80;;;;;;;;;;5084920;28;20036;-54
2021/06/26 03:46:37;;;;;;;0.70;0.70;;;;;;;;;;5088095;28;20049;-53
2021/06/26 03:49:05;;;;;;;1.48;0.80;;;;;;;;;;5093458;28;20129;-54
2021/06/26 03:51:32;;;;;;;2.15;0.80;;;;;;;;;;5087098;28;20064;-54
2021/06/26 03:53:58;;;;;;;1.20;0.80;;;;;;;;;;5076006;28;20067;-53
2021/06/26 03:56:25;;;;;;;0.80;0.80;;;;;;;;;;5082097;28;20036;-54
2021/06/26 03:58:52;;;;;;;0.90;0.90;;;;;;;;;;5081402;28;20040;-53
2021/06/26 04:01:19;;;;;;;0.80;0.80;;;;;;;;;;5091770;28;20040;-54
2021/06/26 04:03:46;;;;;;;1.85;0.80;;;;;;;;;;5087378;28;20046;-54
2021/06/26 04:06:13;;;;;;;0.90;0.90;;;;;;;;;;5093624;28;20079;-54
2021/06/26 04:08:40;;;;;;;1.95;1.05;;;;;;;;;;5086514;28;20648;-54
2021/06/26 04:11:07;;;;;;;0.73;0.73;;;;;;;;;;5078762;28;20044;-54
2021/06/26 04:13:34;;;;;;;1.27;1.27;;;;;;;;;;5089035;28;20040;-54
2021/06/26 04:16:00;;;;;;;1.50;0.80;;;;;;;;;;5084300;28;20576;-54
2021/06/26 04:18:27;;;;;;;0.70;0.70;;;;;;;;;;5086589;28;20464;-54
2021/06/26 04:20:54;;;;;;;1.20;0.70;;;;;;;;;;5087639;28;20044;-54
2021/06/26 04:23:21;;;;;;;1.48;0.82;;;;;;;;;;5086014;28;20047;-54
2021/06/26 04:25:48;;;;;;;0.75;0.75;;;;;;;;;;5088457;28;20099;-54
2021/06/26 04:28:15;;;;;;;0.70;0.70;;;;;;;;;;5085409;28;20044;-53
2021/06/26 04:30:42;;;;;;;0.82;0.80;;;;;;;;;;5087201;28;20074;-53
2021/06/26 04:33:09;;;;;;;0.80;0.80;;;;;;;;;;5089336;28;20036;-53
2021/06/26 04:35:36;;;;;;;4.70;1.27;;;;;;;;;;5085845;28;20098;-53
2021/06/26 04:38:03;;;;;;;1.10;1.00;;;;;;;;;;5084601;28;20447;-54
2021/06/26 04:40:29;;;;;;;0.80;0.80;;;;;;;;;;5084582;28;20044;-54
2021/06/26 04:42:57;;;;;;;0.90;0.90;;;;;;;;;;5079479;28;20051;-53
2021/06/26 04:45:24;;;;;;;1.67;0.80;;;;;;;;;;5089281;28;20117;-54
2021/06/26 04:47:50;;;;;;;1.10;0.80;;;;;;;;;;5083764;28;20044;-52
2021/06/26 04:50:17;;;;;;;0.70;0.70;;;;;;;;;;5091757;28;20485;-54
2021/06/26 04:52:45;;;;;;;0.80;0.80;;;;;;;;;;5080743;28;20143;-53
2021/06/26 04:55:12;;;;;;;0.80;0.80;;;;;;;;;;5078101;28;20469;-54
2021/06/26 04:57:39;;;;;;;0.70;0.70;;;;;;;;;;5075737;28;20036;-54
2021/06/26 05:00:07;;;;;;;0.80;0.80;;;;;;;;;;5082072;28;20389;-54
2021/06/26 05:02:33;;;;;;;0.70;0.70;;;;;;;;;;5091169;28;20036;-54
2021/06/26 05:05:00;;;;;;;0.77;0.77;;;;;;;;;;5086177;28;20417;-54
2021/06/26 05:07:27;;;;;;;0.80;0.80;;;;;;;;;;5088998;28;20044;-54
2021/06/26 05:09:54;;;;;;;0.80;0.80;;;;;;;;;;5074390;28;20048;-54
2021/06/26 05:12:21;;;;;;;1.45;1.33;;;;;;;;;;5083697;28;20032;-54
2021/06/26 05:14:47;;;;;;;1.02;0.93;;;;;;;;;;5078435;28;20093;-53
2021/06/26 05:17:14;;;;;;;1.25;0.80;;;;;;;;;;5087911;28;20063;-54
2021/06/26 05:19:41;;;;;;;1.25;0.80;;;;;;;;;;5087053;28;20042;-54
2021/06/26 05:22:08;;;;;;;0.70;0.70;;;;;;;;;;5081632;28;20102;-55
2021/06/26 05:24:35;;;;;;;2.38;0.70;;;;;;;;;;5082299;28;20119;-55
2021/06/26 05:27:01;;;;;;;0.60;0.60;;;;;;;;;;5089040;28;20040;-56
2021/06/26 05:29:28;;;;;;;1.00;1.00;;;;;;;;;;5084747;28;20404;-56
2021/06/26 05:31:55;;;;;;;0.60;0.60;;;;;;;;;;5089410;28;20105;-57
2021/06/26 05:34:22;;;;;;;0.93;0.70;;;;;;;;;;5092057;28;20067;-56
2021/06/26 05:36:48;;;;;;;0.60;0.60;;;;;;;;;;5085258;28;20055;-55
2021/06/26 05:39:15;;;;;;;0.70;0.70;;;;;;;;;;5090494;28;20123;-56
2021/06/26 05:41:42;;;;;;;0.70;0.70;;;;;;;;;;5088437;28;20048;-56
2021/06/26 05:44:09;;;;;;;0.70;0.70;;;;;;;;;;5084449;28;20134;-56
2021/06/26 05:46:35;;;;;;;0.70;0.70;;;;;;;;;;5089890;28;20044;-56
2021/06/26 05:49:03;;;;;;;0.90;0.70;;;;;;;;;;5082807;28;20685;-56
2021/06/26 05:51:30;;;;;;;0.73;0.73;;;;;;;;;;5088221;28;20161;-56
2021/06/26 05:53:57;;;;;;;0.65;0.65;;;;;;;;;;5088311;28;20122;-56
2021/06/26 05:56:24;;;;;;;0.70;0.70;;;;;;;;;;5084134;28;20071;-55
2021/06/26 05:58:51;;;;;;;0.60;0.60;;;;;;;;;;5090132;28;20468;-56
2021/06/26 06:01:18;;;;;;;0.65;0.65;;;;;;;;;;5085361;28;20040;-55
2021/06/26 06:03:46;;;;;;;0.60;0.60;;;;;;;;;;5087385;28;20123;-56
2021/06/26 06:06:14;;;;;;;0.88;0.73;;;;;;;;;;5086365;28;20105;-56
2021/06/26 06:08:40;;;;;;;0.60;0.60;;;;;;;;;;5085722;28;20074;-56
2021/06/26 06:11:07;;;;;;;0.60;0.60;;;;;;;;;;5072401;28;20044;-56
2021/06/26 06:13:34;;;;;;;0.60;0.60;;;;;;;;;;5085847;28;20044;-56
2021/06/26 06:16:01;;;;;;;0.50;0.50;;;;;;;;;;5089003;28;20044;-55
2021/06/26 06:18:28;;;;;;;0.60;0.60;;;;;;;;;;5079121;28;20027;-55
2021/06/26 06:20:54;;;;;;;0.60;0.60;;;;;;;;;;5082960;28;20047;-55
2021/06/26 06:23:21;;;;;;;0.60;0.60;;;;;;;;;;5090004;28;20127;-55
2021/06/26 06:25:48;;;;;;;0.50;0.50;;;;;;;;;;5079227;28;20044;-56
2021/06/26 06:28:15;;;;;;;2.60;0.50;;;;;;;;;;5076854;28;20481;-55
2021/06/26 06:30:41;;;;;;;1.20;0.60;;;;;;;;;;5088646;28;20139;-56
2021/06/26 06:33:08;;;;;;;0.60;0.60;;;;;;;;;;5083972;28;20097;-56
2021/06/26 06:35:35;;;;;;;0.50;0.50;;;;;;;;;;5090057;28;20051;-56
2021/06/26 06:38:03;;;;;;;2.60;0.70;;;;;;;;;;5078749;28;20032;-55
2021/06/26 06:40:30;;;;;;;0.50;0.50;;;;;;;;;;5076751;28;20045;-56
2021/06/26 06:42:57;;;;;;;2.47;1.05;;;;;;;;;;5089687;28;20067;-56
2021/06/26 06:45:23;;;;;;;1.55;0.57;;;;;;;;;;5084299;28;20476;-56
2021/06/26 06:47:50;;;;;;;0.60;0.60;;;;;;;;;;5087731;28;20528;-55
2021/06/26 06:50:17;;;;;;;1.17;0.50;;;;;;;;;;5088465;28;20036;-56
2021/06/26 06:52:43;;;;;;;0.55;0.55;;;;;;;;;;5084033;28;20070;-56
2021/06/26 06:55:10;;;;;;;1.45;0.50;;;;;;;;;;5089702;28;20093;-56
2021/06/26 06:57:37;;;;;;;0.50;0.50;;;;;;;;;;5083861;28;20500;-55
2021/06/26 07:00:06;;;;;;;0.90;0.90;;;;;;;;;;5088676;28;20511;-56
2021/06/26 07:02:37;;;;;;;0.50;0.50;;;;;;;;;;5088095;28;20056;-56
2021/06/26 07:05:04;;;;;;;0.50;0.50;;;;;;;;;;5084836;28;20067;-56
2021/06/26 07:07:30;;;;;;;0.50;0.50;;;;;;;;;;5086056;28;20659;-56
2021/06/26 07:09:57;;;;;;;0.50;0.50;;;;;;;;;;5085554;28;20047;-56
2021/06/26 07:12:24;;;;;;;0.60;0.60;;;;;;;;;;5087015;28;20143;-55
2021/06/26 07:14:51;;;;;;;0.65;0.65;;;;;;;;;;5087421;28;20037;-55
2021/06/26 07:17:17;;;;;;;0.50;0.50;;;;;;;;;;5084003;28;20040;-55
2021/06/26 07:19:44;;;;;;;0.40;0.40;;;;;;;;;;5080892;28;20077;-55
2021/06/26 07:22:11;;;;;;;0.80;0.50;;;;;;;;;;5085060;28;20062;-56
2021/06/26 07:24:38;;;;;;;0.47;0.47;;;;;;;;;;5085924;28;20089;-56
2021/06/26 07:27:05;;;;;;;0.50;0.50;;;;;;;;;;5087344;28;20123;-56
2021/06/26 07:29:32;;;;;;;2.65;0.50;;;;;;;;;;5084135;28;20039;-56
2021/06/26 07:31:58;;;;;;;0.50;0.50;;;;;;;;;;5088156;28;20063;-56
2021/06/26 07:34:25;;;;;;;0.63;0.50;;;;;;;;;;5079556;28;20041;-56
2021/06/26 07:36:52;;;;;;;0.40;0.40;;;;;;;;;;5086810;28;20065;-56
2021/06/26 07:39:19;;;;;;;1.45;0.60;;;;;;;;;;5088124;28;20045;-56
2021/06/26 07:41:45;;;;;;;0.50;0.50;;;;;;;;;;5079897;28;20383;-56
2021/06/26 07:44:12;;;;;;;2.03;0.50;;;;;;;;;;5072973;28;20101;-55
2021/06/26 07:46:39;;;;;;;1.00;0.50;;;;;;;;;;5086763;28;20097;-55
2021/06/26 07:49:06;;;;;;;0.40;0.40;;;;;;;;;;5081772;28;20508;-56
2021/06/26 07:51:32;;;;;;;0.47;0.47;;;;;;;;;;5086841;28;20032;-56
2021/06/26 07:53:59;;;;;;;0.63;0.50;;;;;;;;;;5079681;28;20373;-56
2021/06/26 07:56:26;;;;;;;0.68;0.47;;;;;;;;;;5073635;28;20147;-56
2021/06/26 07:58:53;;;;;;;0.40;0.40;;;;;;;;;;5086705;28;20039;-56
2021/06/26 08:01:20;;;;;;;0.85;0.40;;;;;;;;;;5082807;28;20112;-56
2021/06/26 08:03:47;;;;;;;0.40;0.40;;;;;;;;;;5088588;28;20126;-56
2021/06/26 08:06:13;;;;;;;0.40;0.40;;;;;;;;;;5082140;28;20212;-56
2021/06/26 08:08:40;;;;;;;2.28;0.80;;;;;;;;;;5086738;28;20060;-55
2021/06/26 08:11:07;;;;;;;0.43;0.43;;;;;;;;;;5073250;28;20040;-56
2021/06/26 08:13:34;;;;;;;0.40;0.40;;;;;;;;;;5077676;28;20043;-55
2021/06/26 08:16:01;;;;;;;1.83;0.30;;;;;;;;;;5088626;28;20111;-56
2021/06/26 08:18:28;;;;;;;0.40;0.40;;;;;;;;;;5082384;28;20039;-56
2021/06/26 08:20:55;;;;;;;0.40;0.40;;;;;;;;;;5079517;28;20037;-56
2021/06/26 08:23:21;;;;;;;1.35;0.40;;;;;;;;;;5086306;28;20546;-56
2021/06/26 08:25:48;;;;;;;0.30;0.30;;;;;;;;;;5080246;28;20480;-56
2021/06/26 08:28:15;;;;;;;0.30;0.30;;;;;;;;;;5071556;28;20049;-56
2021/06/26 08:30:42;;;;;;;1.00;0.32;;;;;;;;;;5082944;28;20097;-56
2021/06/26 08:33:08;;;;;;;0.40;0.30;;;;;;;;;;5087063;28;20553;-56
2021/06/26 08:35:35;;;;;;;0.30;0.30;;;;;;;;;;5088701;28;20042;-57
2021/06/26 08:38:02;;;;;;;0.20;0.20;;;;;;;;;;5085332;28;20426;-56
2021/06/26 08:40:29;;;;;;;1.55;0.30;;;;;;;;;;5088517;28;20040;-56
2021/06/26 08:42:56;;;;;;;0.30;0.30;;;;;;;;;;5087900;28;20425;-56
2021/06/26 08:45:23;;;;;;;0.30;0.30;;;;;;;;;;5087256;28;20047;-56
2021/06/26 08:47:51;;;;;;;1.15;0.82;;;;;;;;;;5087890;28;20460;-57
2021/06/26 08:50:19;;;;;;;2.75;0.28;;;;;;;;;;5088133;28;20405;-56
2021/06/26 08:52:46;;;;;;;0.30;0.30;;;;;;;;;;5088218;28;20063;-57
2021/06/26 08:55:13;;;;;;;1.33;0.30;;;;;;;;;;5086654;28;20032;-56
2021/06/26 08:57:42;;;;;;;0.20;0.20;;;;;;;;;;5088534;28;20036;-56
2021/06/26 09:00:11;;;;;;;0.30;0.30;;;;;;;;;;5087637;28;20117;-56
2021/06/26 09:02:38;;;;;;;0.20;0.20;;;;;;;;;;5081964;28;20036;-56
2021/06/26 09:05:05;;;;;;;0.98;0.30;;;;;;;;;;5083104;28;20044;-56
2021/06/26 09:07:36;;;;;;;0.30;0.30;;;;;;;;;;5088618;28;20043;-57
2021/06/26 09:10:12;;;;;;;0.30;0.30;;;;;;;;;;5084497;28;20048;-57
2021/06/26 09:12:39;;;;;;;0.30;0.30;;;;;;;;;;5089434;28;20044;-56
2021/06/26 09:15:07;;;;;;;0.20;0.20;;;;;;;;;;5088468;28;20035;-57
2021/06/26 09:17:34;;;;;;;0.20;0.20;;;;;;;;;;5083264;28;20044;-57
2021/06/26 09:20:05;;;;;;;1.55;0.20;;;;;;;;;;5084499;28;20469;-56
2021/06/26 09:22:36;;;;;;;0.20;0.20;;;;;;;;;;5086887;28;20060;-57
2021/06/26 09:25:03;;;;;;;0.25;0.20;;;;;;;;;;5073953;28;20178;-57
2021/06/26 09:27:34;;;;;;;0.20;0.20;;;;;;;;;;5084148;28;20032;-56
2021/06/26 09:30:01;;;;;;;0.43;0.20;;;;;;;;;;5088255;28;20118;-56
2021/06/26 09:32:29;;;;;;;0.25;0.20;;;;;;;;;;5087960;28;20135;-57
2021/06/26 09:34:57;;;;;;;1.40;0.20;;;;;;;;;;5086845;28;20124;-56
2021/06/26 09:37:26;;;;;;;0.20;0.20;;;;;;;;;;5087987;28;20083;-56
2021/06/26 09:39:54;;;;;;;0.20;0.20;;;;;;;;;;5086696;28;20036;-55
2021/06/26 09:42:37;;;;;;;2.05;0.30;;;;;;;;;;5084817;28;20437;-56
2021/06/26 09:45:08;;;;;;;0.20;0.20;;;;;;;;;;5091107;28;20116;-56
2021/06/26 09:47:39;;;;;;;0.20;0.20;;;;;;;;;;5081807;28;20044;-57
2021/06/26 09:50:09;;;;;;;0.45;0.30;;;;;;;;;;5083046;28;20079;-56
2021/06/26 09:52:44;;;;;;;0.63;0.30;;;;;;;;;;5086433;28;20039;-56
2021/06/26 09:55:15;;;;;;;1.13;0.30;;;;;;;;;;5087490;28;20129;-57
2021/06/26 09:57:42;;;;;;;1.00;0.30;;;;;;;;;;5082079;28;20032;-56
2021/06/26 10:00:09;;;;;;;1.02;0.30;;;;;;;;;;5085412;28;20115;-57
2021/06/26 10:02:36;;;;;;;1.52;0.20;;;;;;;;;;5087106;28;20086;-57
2021/06/26 10:05:06;;;;;;;0.60;0.30;;;;;;;;;;5087486;28;20043;-57
2021/06/26 10:07:35;;;;;;;0.47;0.20;;;;;;;;;;5084891;28;20097;-56
2021/06/26 10:10:02;;;;;;;2.17;0.30;;;;;;;;;;5088686;28;20103;-56
2021/06/26 10:12:29;;;;;;;0.30;0.30;;;;;;;;;;5083175;28;20395;-57
2021/06/26 10:14:56;;;;;;;0.20;0.20;;;;;;;;;;5085782;28;20028;-56
2021/06/26 10:17:23;;;;;;;0.40;0.22;;;;;;;;;;5079697;28;20071;-57
2021/06/26 10:19:50;;;;;;;1.67;0.20;;;;;;;;;;5081784;28;20144;-58
2021/06/26 10:22:17;;;;;;;0.25;0.20;;;;;;;;;;5079711;28;20051;-58
2021/06/26 10:33:53;;;;;;;0.30;0.30;;;;;;;;;;5099989;27;20359;-56
2021/06/26 10:36:20;;;;;;;0.20;0.20;;;;;;;;;;5103039;28;20040;-57
2021/06/26 10:38:46;;;;;;;0.20;0.20;;;;;;;;;;5096393;28;20047;-56
2021/06/26 10:41:20;;;;;;;0.20;0.20;;;;;;;;;;5103757;28;20059;-57
2021/06/26 10:43:54;;;;;;;0.30;0.20;;;;;;;;;;5084565;28;20554;-57
2021/06/26 10:46:21;;;;;;;0.25;0.20;;;;;;;;;;5102557;28;20617;-56
2021/06/26 10:48:58;;;;;;;2.55;0.28;;;;;;;;;;5097776;28;20068;-57
2021/06/26 10:51:38;;;;;;;0.20;0.20;;;;;;;;;;5101161;28;20688;-57
2021/06/26 10:54:15;;;;;;;0.52;0.20;;;;;;;;;;5101316;28;20071;-56
2021/06/26 10:56:43;;;;;;;0.85;0.20;;;;;;;;;;5096520;28;20063;-57
2021/06/26 10:59:10;;;;;;;0.30;0.30;;;;;;;;;;5104213;28;20040;-56
2021/06/26 11:01:38;;;;;;;0.20;0.20;;;;;;;;;;5100659;28;20040;-56
2021/06/26 11:04:09;;;;;;;0.20;0.20;;;;;;;;;;5102525;28;20055;-56
2021/06/26 11:06:39;;;;;;;0.20;0.20;;;;;;;;;;5104459;28;20388;-56
2021/06/26 11:09:10;;;;;;;0.22;0.22;;;;;;;;;;5104246;28;20040;-56
2021/06/26 11:11:40;;;;;;;0.20;0.20;;;;;;;;;;5104488;28;20095;-56
2021/06/26 11:14:20;;;;;;;0.32;0.20;;;;;;;;;;5106038;28;20040;-58
2021/06/26 11:16:56;;;;;;;0.40;0.30;;;;;;;;;;5100080;28;20039;-56
2021/06/26 11:19:27;;;;;;;1.55;0.20;;;;;;;;;;5098659;28;20052;-56
2021/06/26 11:21:55;;;;;;;0.20;0.20;;;;;;;;;;5105806;28;20093;-57
2021/06/26 11:24:31;;;;;;;0.38;0.30;;;;;;;;;;5103700;28;20558;-56
2021/06/26 11:26:58;;;;;;;0.20;0.20;;;;;;;;;;5106304;28;20036;-57
2021/06/26 11:29:29;;;;;;;0.20;0.20;;;;;;;;;;5104394;28;20173;-56
2021/06/26 11:31:56;;;;;;;0.20;0.20;;;;;;;;;;5103290;28;20063;-56
2021/06/26 11:34:23;;;;;;;0.20;0.20;;;;;;;;;;5106714;28;20557;-55
2021/06/26 11:36:54;;;;;;;0.20;0.20;;;;;;;;;;5101688;28;20059;-52
2021/06/26 11:39:22;;;;;;;0.20;0.20;;;;;;;;;;5106544;28;20055;-54
2021/06/26 11:41:48;;;;;;;0.20;0.20;;;;;;;;;;5104508;28;20517;-54
2021/06/26 11:44:15;;;;;;;0.20;0.20;;;;;;;;;;5095223;28;20035;-54
2021/06/26 11:46:42;;;;;;;0.20;0.20;;;;;;;;;;5093393;28;20094;-53
2021/06/26 11:49:09;;;;;;;0.20;0.20;;;;;;;;;;5091443;28;20028;-53
2021/06/26 11:51:38;;;;;;;0.22;0.20;;;;;;;;;;5091154;28;20036;-52
2021/06/26 11:54:04;;;;;;;2.40;0.30;;;;;;;;;;5092143;28;20123;-53
2021/06/26 11:56:31;;;;;;;0.20;0.20;;;;;;;;;;5089646;28;20067;-53
2021/06/26 11:58:58;;;;;;;1.10;0.20;;;;;;;;;;5106554;28;20501;-54
2021/06/26 12:01:29;;;;;;;0.20;0.20;;;;;;;;;;5091405;28;20189;-51
2021/06/26 12:03:57;;;;;;;0.17;0.17;;;;;;;;;;5078963;28;20094;-53
2021/06/26 12:06:23;;;;;;;0.88;0.20;;;;;;;;;;5092900;28;20135;-53
2021/06/26 12:08:54;;;;;;;3.13;0.30;;;;;;;;;;5088289;28;20040;-52
2021/06/26 12:11:25;;;;;;;0.57;0.17;;;;;;;;;;5093527;28;20040;-53
2021/06/26 12:13:54;;;;;;;0.20;0.20;;;;;;;;;;5090182;28;20036;-53
2021/06/26 12:16:21;;;;;;;0.38;0.20;;;;;;;;;;5090604;28;20089;-53
2021/06/26 12:18:50;;;;;;;0.20;0.20;;;;;;;;;;5091530;28;20048;-53
2021/06/26 12:21:17;;;;;;;0.10;0.10;;;;;;;;;;5089904;28;20089;-54
2021/06/26 12:23:45;;;;;;;0.10;0.10;;;;;;;;;;5092002;28;20040;-54
2021/06/26 12:26:17;;;;;;;2.55;0.17;;;;;;;;;;5090310;28;20064;-53
2021/06/26 12:28:44;;;;;;;0.30;0.20;;;;;;;;;;5088939;28;20040;-53
2021/06/26 12:31:11;;;;;;;0.10;0.10;;;;;;;;;;5089982;28;20182;-53
2021/06/26 12:33:39;;;;;;;0.95;0.20;;;;;;;;;;5088703;28;20173;-51
2021/06/26 12:36:13;;;;;;;0.20;0.20;;;;;;;;;;5089498;28;20036;-53
2021/06/26 12:38:41;;;;;;;0.32;0.20;;;;;;;;;;5091972;28;20475;-53
2021/06/26 12:41:20;;;;;;;0.20;0.20;;;;;;;;;;5088399;28;20064;-53
2021/06/26 12:43:47;;;;;;;1.67;0.10;;;;;;;;;;5091821;28;20071;-43
2021/06/26 12:46:15;;;;;;;0.10;0.10;;;;;;;;;;5090390;28;20040;-45
2021/06/26 12:48:50;;;;;;;0.30;0.20;;;;;;;;;;5088625;28;20141;-44
2021/06/26 12:51:18;;;;;;;1.00;0.10;;;;;;;;;;5092133;28;20040;-44
2021/06/26 12:53:46;;;;;;;0.10;0.10;;;;;;;;;;5088932;28;20093;-45
2021/06/26 12:56:16;;;;;;;0.32;0.20;;;;;;;;;;5088737;28;20110;-44
2021/06/26 12:59:00;;;;;;;1.08;0.15;;;;;;;;;;5083428;28;20089;-45
2021/06/26 13:01:43;;;;;;;0.17;0.10;;;;;;;;;;5084015;28;20048;-44
2021/06/26 13:04:12;;;;;;;0.20;0.20;;;;;;;;;;5088202;28;20048;-43
2021/06/26 13:06:49;;;;;;;0.90;0.10;;;;;;;;;;5084232;28;20036;-43
2021/06/26 13:09:19;;;;;;;0.47;0.20;;;;;;;;;;5077613;28;20044;-44
2021/06/26 13:11:46;;;;;;;0.40;0.10;;;;;;;;;;5089471;28;20040;-44
2021/06/26 13:14:13;;;;;;;0.20;0.20;;;;;;;;;;5088396;28;20074;-47
2021/06/26 13:16:40;;;;;;;0.10;0.10;;;;;;;;;;5084739;28;20422;-44
2021/06/26 13:19:08;;;;;;;0.10;0.10;;;;;;;;;;5089285;28;20070;-43
2021/06/26 13:21:37;;;;;;;2.60;0.10;;;;;;;;;;5088145;28;20046;-43
2021/06/26 13:24:04;;;;;;;0.20;0.20;;;;;;;;;;5088860;28;20521;-44
2021/06/26 13:26:31;;;;;;;0.17;0.10;;;;;;;;;;5088037;28;20032;-42
2021/06/26 13:28:58;;;;;;;0.20;0.20;;;;;;;;;;5088095;28;20048;-44
2021/06/26 13:31:31;;;;;;;0.10;0.10;;;;;;;;;;5097882;28;20031;-44
2021/06/26 13:33:58;;;;;;;0.15;0.10;;;;;;;;;;5080694;28;20612;-43
2021/06/26 13:36:24;;;;;;;0.10;0.10;;;;;;;;;;5089582;28;20060;-44
2021/06/26 13:38:51;;;;;;;0.20;0.10;;;;;;;;;;5086212;28;20085;-44
2021/06/26 13:41:20;;;;;;;1.30;0.20;;;;;;;;;;5083261;28;20036;-46
2021/06/26 13:43:47;;;;;;;0.15;0.15;;;;;;;;;;5089445;28;20127;-44
2021/06/26 13:46:14;;;;;;;0.10;0.10;;;;;;;;;;5088130;28;20048;-44
2021/06/26 13:48:41;;;;;;;0.20;0.10;;;;;;;;;;5090181;28;20052;-44
2021/06/26 13:51:08;;;;;;;0.10;0.10;;;;;;;;;;5085850;28;20143;-45
2021/06/26 13:53:34;;;;;;;0.10;0.10;;;;;;;;;;5087325;28;20476;-44
2021/06/26 13:56:04;;;;;;;0.10;0.10;;;;;;;;;;5090652;28;20429;-44
2021/06/26 13:58:31;;;;;;;0.20;0.20;;;;;;;;;;5088155;28;20032;-43
2021/06/26 14:00:58;;;;;;;0.17;0.17;;;;;;;;;;5090037;28;20119;-43
2021/06/26 14:03:24;;;;;;;0.10;0.10;;;;;;;;;;5090454;28;20048;-45
2021/06/26 14:05:51;;;;;;;0.90;0.10;;;;;;;;;;5087088;28;20056;-45
2021/06/26 14:08:18;;;;;;;0.10;0.10;;;;;;;;;;5102074;28;20067;-45
2021/06/26 14:10:50;;;;;;;0.10;0.10;;;;;;;;;;5092652;28;20047;-45
2021/06/26 14:13:17;;;;;;;;;;;;;;;;;;5071475;28;20036;-45
2021/06/26 14:15:44;;;;;;;0.90;0.20;;;;;;;;;;5090154;28;19966;-44
2021/06/26 14:18:11;;;;;;;0.13;0.10;;;;;;;;;;5087837;28;20036;-44
2021/06/26 14:20:38;;;;;;;0.10;0.10;;;;;;;;;;5076070;28;20129;-45
2021/06/26 14:23:05;;;;;;;2.60;0.20;;;;;;;;;;5084569;28;20081;-44
2021/06/26 14:25:32;;;;;;;0.20;0.20;;;;;;;;;;5087830;28;20074;-44
2021/06/26 14:27:59;;;;;;;0.20;0.20;;;;;;;;;;5088829;28;20475;-44
2021/06/26 14:30:25;;;;;;;0.55;0.10;;;;;;;;;;5086648;28;20044;-45
2021/06/26 14:32:52;;;;;;;0.15;0.15;;;;;;;;;;5088743;28;20055;-44
2021/06/26 14:35:19;;;;;;;0.10;0.10;;;;;;;;;;5087850;28;20073;-43
2021/06/26 14:37:47;;;;;;;1.35;0.20;;;;;;;;;;5078490;28;20056;-45
2021/06/26 14:40:14;;;;;;;0.15;0.15;;;;;;;;;;5087501;28;20472;-44
2021/06/26 14:42:40;;;;;;;0.20;0.20;;;;;;;;;;5086755;28;20044;-44
2021/06/26 14:45:07;;;;;;;0.10;0.10;;;;;;;;;;5090105;28;20044;-45
2021/06/26 14:47:34;;;;;;;1.02;0.20;;;;;;;;;;5090331;28;20081;-43
2021/06/26 14:50:01;;;;;;;0.80;0.10;;;;;;;;;;5089965;28;20044;-44
2021/06/26 14:52:28;;;;;;;0.30;0.15;;;;;;;;;;5089453;28;20117;-44
2021/06/26 14:54:55;;;;;;;0.30;0.10;;;;;;;;;;5088306;28;20036;-44